Time,TemperatureF,DewpointF,PressureIn,WindDirection,WindDirectionDegrees,WindSpeedMPH,WindSpeedGustMPH,Humidity,HourlyPrecipIn,Conditions,Clouds,dailyrainin,SoftwareType,DateUTC
2013-07-12 00:04:00,71.6,68.0,29.88,WNW,298,0.0,0.0,88,0.00,,,0.00,weatherlink.com 1.10,2013-07-12 04:04:00,
2013-07-12 00:19:00,71.4,68.0,29.87,WNW,298,0.0,0.0,89,0.00,,,0.00,weatherlink.com 1.10,2013-07-12 04:19:00,
2013-07-12 00:34:00,71.2,68.0,29.88,WNW,298,0.0,0.0,89,0.00,,,0.00,weatherlink.com 1.10,2013-07-12 04:34:00,
2013-07-12 00:49:00,70.9,68.0,29.89,WNW,298,0.0,0.0,89,0.00,,,0.00,weatherlink.com 1.10,2013-07-12 04:49:00,
2013-07-12 01:04:00,70.7,67.0,29.89,WNW,298,0.0,0.0,89,0.00,,,0.00,weatherlink.com 1.10,2013-07-12 05:04:00,
2013-07-12 01:19:00,70.6,67.0,29.89,WNW,298,0.0,0.0,89,0.00,,,0.00,weatherlink.com 1.10,2013-07-12 05:19:00,
2013-07-12 01:34:00,70.4,67.0,29.90,WNW,298,0.0,0.0,89,0.00,,,0.00,weatherlink.com 1.10,2013-07-12 05:34:00,
2013-07-12 01:49:00,70.4,67.0,29.90,WNW,298,0.0,0.0,89,0.00,,,0.00,weatherlink.com 1.10,2013-07-12 05:49:00,
2013-07-12 02:04:00,70.3,67.0,29.91,WNW,298,0.0,0.0,89,0.01,,,0.01,weatherlink.com 1.10,2013-07-12 06:04:00,
2013-07-12 02:19:00,70.1,67.0,29.91,WNW,298,0.0,0.0,91,0.02,,,0.02,weatherlink.com 1.10,2013-07-12 06:19:00,
2013-07-12 02:34:00,69.6,67.0,29.92,WNW,298,1.0,1.0,92,0.02,,,0.02,weatherlink.com 1.10,2013-07-12 06:34:00,
2013-07-12 02:49:00,69.3,67.0,29.92,WNW,298,1.0,1.0,93,0.02,,,0.02,weatherlink.com 1.10,2013-07-12 06:49:00,
2013-07-12 03:04:00,69.2,68.0,29.92,WNW,298,0.0,0.0,94,0.01,,,0.02,weatherlink.com 1.10,2013-07-12 07:04:00,
2013-07-12 03:19:00,69.0,67.0,29.91,West,272,0.0,2.0,94,0.00,,,0.02,weatherlink.com 1.10,2013-07-12 07:19:00,
2013-07-12 03:34:00,68.6,67.0,29.92,West,272,0.0,1.0,94,0.00,,,0.02,weatherlink.com 1.10,2013-07-12 07:34:00,
2013-07-12 03:49:00,68.3,67.0,29.93,West,272,0.0,0.0,94,0.03,,,0.05,weatherlink.com 1.10,2013-07-12 07:49:00,
2013-07-12 04:04:00,68.0,66.0,29.92,West,272,0.0,0.0,94,0.06,,,0.08,weatherlink.com 1.10,2013-07-12 08:04:00,
2013-07-12 04:19:00,67.9,67.0,29.91,West,272,0.0,0.0,95,0.06,,,0.08,weatherlink.com 1.10,2013-07-12 08:19:00,
2013-07-12 04:34:00,67.7,66.0,29.91,West,272,0.0,0.0,95,0.06,,,0.08,weatherlink.com 1.10,2013-07-12 08:34:00,
2013-07-12 04:49:00,67.5,66.0,29.91,West,272,0.0,0.0,95,0.04,,,0.09,weatherlink.com 1.10,2013-07-12 08:49:00,
2013-07-12 05:04:00,67.2,66.0,29.89,West,272,0.0,0.0,95,0.02,,,0.10,weatherlink.com 1.10,2013-07-12 09:04:00,
2013-07-12 05:19:00,66.3,65.0,29.91,SSE,152,0.0,3.0,95,0.02,,,0.10,weatherlink.com 1.10,2013-07-12 09:19:00,
2013-07-12 05:34:00,66.0,65.0,29.93,SSE,152,0.0,4.0,95,0.03,,,0.11,weatherlink.com 1.10,2013-07-12 09:34:00,
2013-07-12 05:49:00,65.9,65.0,29.93,SSE,152,0.0,0.0,95,0.04,,,0.13,weatherlink.com 1.10,2013-07-12 09:49:00,
2013-07-12 06:04:00,65.8,64.0,29.92,SSE,152,0.0,0.0,95,0.04,,,0.14,weatherlink.com 1.10,2013-07-12 10:04:00,
2013-07-12 06:19:00,65.6,65.0,29.92,SSE,152,0.0,0.0,96,0.03,,,0.14,weatherlink.com 1.10,2013-07-12 10:19:00,
2013-07-12 06:34:00,65.5,64.0,29.92,SSE,152,0.0,0.0,96,0.04,,,0.15,weatherlink.com 1.10,2013-07-12 10:34:00,
2013-07-12 06:49:00,65.5,64.0,29.92,SSE,152,0.0,0.0,96,0.02,,,0.15,weatherlink.com 1.10,2013-07-12 10:49:00,
2013-07-12 07:04:00,65.3,64.0,29.93,SSE,152,0.0,0.0,96,0.02,,,0.16,weatherlink.com 1.10,2013-07-12 11:04:00,
2013-07-12 07:19:00,65.4,64.0,29.93,SSE,152,0.0,0.0,96,0.02,,,0.16,weatherlink.com 1.10,2013-07-12 11:19:00,
2013-07-12 07:34:00,65.5,64.0,29.94,SSE,152,0.0,0.0,96,0.01,,,0.16,weatherlink.com 1.10,2013-07-12 11:34:00,
2013-07-12 07:49:00,65.7,65.0,29.95,SSE,152,0.0,0.0,97,0.01,,,0.16,weatherlink.com 1.10,2013-07-12 11:49:00,
2013-07-12 08:04:00,66.0,65.0,29.95,SSE,152,0.0,0.0,97,0.00,,,0.16,weatherlink.com 1.10,2013-07-12 12:04:00,
2013-07-12 08:19:00,66.4,66.0,29.95,SSE,152,0.0,0.0,97,0.00,,,0.16,weatherlink.com 1.10,2013-07-12 12:19:00,
2013-07-12 08:34:00,66.6,66.0,29.95,SSE,152,0.0,0.0,97,0.01,,,0.17,weatherlink.com 1.10,2013-07-12 12:34:00,
2013-07-12 08:49:00,66.9,66.0,29.95,SSE,152,0.0,0.0,97,0.02,,,0.18,weatherlink.com 1.10,2013-07-12 12:49:00,
2013-07-12 09:04:00,67.1,66.0,29.95,SSE,152,0.0,0.0,97,0.02,,,0.18,weatherlink.com 1.10,2013-07-12 13:04:00,
2013-07-12 09:19:00,67.2,66.0,29.95,SSE,152,0.0,0.0,97,0.02,,,0.18,weatherlink.com 1.10,2013-07-12 13:19:00,
2013-07-12 09:34:00,67.4,67.0,29.95,SSE,152,0.0,0.0,97,0.01,,,0.18,weatherlink.com 1.10,2013-07-12 13:34:00,
2013-07-12 09:49:00,67.6,67.0,29.94,SSE,152,0.0,0.0,97,0.00,,,0.18,weatherlink.com 1.10,2013-07-12 13:49:00,
2013-07-12 10:05:00,67.9,67.0,29.94,SSE,152,0.0,1.0,97,0.00,,,0.18,weatherlink.com 1.10,2013-07-12 14:05:00,
2013-07-12 10:20:00,68.2,67.0,29.95,SSE,152,0.0,1.0,97,0.00,,,0.18,weatherlink.com 1.10,2013-07-12 14:20:00,
2013-07-12 10:35:00,68.6,68.0,29.95,NW,314,0.0,2.0,97,0.01,,,0.19,weatherlink.com 1.10,2013-07-12 14:35:00,
2013-07-12 10:50:00,68.7,68.0,29.95,NW,314,0.0,1.0,96,0.01,,,0.19,weatherlink.com 1.10,2013-07-12 14:50:00,
2013-07-12 11:05:00,68.8,68.0,29.96,NW,314,0.0,1.0,96,0.01,,,0.19,weatherlink.com 1.10,2013-07-12 15:05:00,
2013-07-12 11:20:00,69.2,68.0,29.98,NW,314,0.0,0.0,96,0.01,,,0.19,weatherlink.com 1.10,2013-07-12 15:20:00,
2013-07-12 11:35:00,69.3,68.0,29.98,NW,314,0.0,1.0,96,0.00,,,0.19,weatherlink.com 1.10,2013-07-12 15:35:00,
2013-07-12 11:50:00,69.5,68.0,29.98,NW,313,0.0,1.0,95,0.00,,,0.19,weatherlink.com 1.10,2013-07-12 15:50:00,
2013-07-12 12:05:00,69.3,68.0,29.99,WNW,299,0.0,0.0,94,0.00,,,0.19,weatherlink.com 1.10,2013-07-12 16:05:00,
2013-07-12 12:20:00,69.4,68.0,29.99,WNW,299,0.0,0.0,94,0.00,,,0.19,weatherlink.com 1.10,2013-07-12 16:20:00,
2013-07-12 12:35:00,69.4,68.0,29.98,WNW,300,0.0,0.0,94,0.00,,,0.19,weatherlink.com 1.10,2013-07-12 16:35:00,
2013-07-12 12:50:00,69.4,68.0,29.98,WNW,300,0.0,0.0,94,0.00,,,0.19,weatherlink.com 1.10,2013-07-12 16:50:00,
2013-07-12 13:20:00,69.4,68.0,29.98,WNW,300,0.0,1.0,94,0.00,,,0.19,weatherlink.com 1.10,2013-07-12 17:20:00,
2013-07-12 13:35:00,69.4,68.0,29.98,WNW,300,0.0,1.0,94,0.00,,,0.19,weatherlink.com 1.10,2013-07-12 17:35:00,
2013-07-12 13:50:00,69.7,68.0,29.98,WNW,299,0.0,1.0,93,0.00,,,0.19,weatherlink.com 1.10,2013-07-12 17:50:00,
2013-07-12 14:05:00,69.9,68.0,29.96,WNW,300,0.0,1.0,93,0.00,,,0.19,weatherlink.com 1.10,2013-07-12 18:05:00,
2013-07-12 14:20:00,70.5,68.0,29.97,WNW,301,0.0,1.0,92,0.00,,,0.19,weatherlink.com 1.10,2013-07-12 18:20:00,
2013-07-12 14:35:00,71.1,68.0,29.97,WNW,300,0.0,1.0,91,0.00,,,0.19,weatherlink.com 1.10,2013-07-12 18:35:00,
2013-07-12 14:50:00,71.7,69.0,29.97,WNW,301,0.0,1.0,90,0.00,,,0.19,weatherlink.com 1.10,2013-07-12 18:50:00,
2013-07-12 15:05:00,72.5,69.0,29.97,WNW,301,0.0,1.0,89,0.00,,,0.19,weatherlink.com 1.10,2013-07-12 19:05:00,
2013-07-12 15:20:00,73.3,69.0,29.97,WNW,291,0.0,4.0,87,0.00,,,0.19,weatherlink.com 1.10,2013-07-12 19:20:00,
2013-07-12 15:35:00,74.5,69.0,29.97,SE,140,0.0,3.0,84,0.00,,,0.19,weatherlink.com 1.10,2013-07-12 19:35:00,
2013-07-12 15:50:00,75.7,70.0,29.97,SE,141,0.0,2.0,82,0.00,,,0.19,weatherlink.com 1.10,2013-07-12 19:50:00,
2013-07-12 16:05:00,75.9,69.0,29.98,SE,146,0.0,3.0,80,0.00,,,0.19,weatherlink.com 1.10,2013-07-12 20:05:00,
2013-07-12 16:20:00,76.2,70.0,29.98,WSW,238,0.0,2.0,81,0.00,,,0.19,weatherlink.com 1.10,2013-07-12 20:20:00,
2013-07-12 16:35:00,75.4,70.0,29.98,ENE,78,0.0,4.0,82,0.00,,,0.19,weatherlink.com 1.10,2013-07-12 20:35:00,
2013-07-12 16:50:00,75.7,70.0,29.98,East,87,0.0,1.0,81,0.00,,,0.19,weatherlink.com 1.10,2013-07-12 20:50:00,
2013-07-12 17:05:00,74.9,69.0,29.98,West,276,0.0,3.0,82,0.00,,,0.19,weatherlink.com 1.10,2013-07-12 21:05:00,
2013-07-12 17:20:00,74.2,69.0,29.98,WSW,247,0.0,1.0,83,0.00,,,0.19,weatherlink.com 1.10,2013-07-12 21:20:00,
2013-07-12 17:35:00,74.3,69.0,29.98,WSW,247,0.0,1.0,83,0.00,,,0.19,weatherlink.com 1.10,2013-07-12 21:35:00,
2013-07-12 17:50:00,74.4,69.0,29.97,WSW,247,0.0,1.0,83,0.00,,,0.19,weatherlink.com 1.10,2013-07-12 21:50:00,
2013-07-12 18:05:00,74.8,70.0,29.97,WSW,246,0.0,1.0,84,0.00,,,0.19,weatherlink.com 1.10,2013-07-12 22:05:00,
2013-07-12 18:35:00,74.4,70.0,29.98,WSW,247,0.0,1.0,85,0.00,,,0.19,weatherlink.com 1.10,2013-07-12 22:35:00,
2013-07-12 18:50:00,74.1,70.0,29.98,WSW,247,0.0,0.0,86,0.00,,,0.19,weatherlink.com 1.10,2013-07-12 22:50:00,
2013-07-12 19:05:00,73.8,70.0,29.98,WSW,247,0.0,0.0,87,0.00,,,0.19,weatherlink.com 1.10,2013-07-12 23:05:00,
2013-07-12 19:20:00,73.5,70.0,29.98,WSW,247,0.0,1.0,87,0.00,,,0.19,weatherlink.com 1.10,2013-07-12 23:20:00,
2013-07-12 19:35:00,73.3,69.0,29.98,SSE,165,0.0,1.0,87,0.00,,,0.19,weatherlink.com 1.10,2013-07-12 23:35:00,
2013-07-12 19:50:00,73.1,69.0,29.98,SSE,165,0.0,0.0,88,0.00,,,0.19,weatherlink.com 1.10,2013-07-12 23:50:00,
2013-07-12 20:05:00,72.9,69.0,29.98,SSE,165,0.0,0.0,88,0.00,,,0.19,weatherlink.com 1.10,2013-07-13 00:05:00,
2013-07-12 20:20:00,72.6,69.0,29.98,SSE,165,0.0,0.0,89,0.00,,,0.19,weatherlink.com 1.10,2013-07-13 00:20:00,
2013-07-12 20:35:00,72.4,69.0,29.98,SSE,165,0.0,0.0,89,0.00,,,0.19,weatherlink.com 1.10,2013-07-13 00:35:00,
2013-07-12 20:50:00,72.3,69.0,29.99,SSE,165,0.0,0.0,90,0.00,,,0.19,weatherlink.com 1.10,2013-07-13 00:50:00,
2013-07-12 21:05:00,72.0,69.0,30.00,SSE,165,0.0,0.0,91,0.02,,,0.21,weatherlink.com 1.10,2013-07-13 01:05:00,
2013-07-12 21:20:00,71.5,69.0,30.00,SSE,165,0.0,1.0,92,0.04,,,0.23,weatherlink.com 1.10,2013-07-13 01:20:00,
2013-07-12 21:35:00,70.8,69.0,30.00,SSE,165,0.0,0.0,93,0.06,,,0.25,weatherlink.com 1.10,2013-07-13 01:35:00,
2013-07-12 21:50:00,70.4,69.0,30.00,SSE,165,0.0,1.0,94,0.07,,,0.26,weatherlink.com 1.10,2013-07-13 01:50:00,
2013-07-12 22:05:00,70.1,69.0,30.00,SSE,165,0.0,0.0,95,0.05,,,0.26,weatherlink.com 1.10,2013-07-13 02:05:00,
2013-07-12 22:20:00,69.8,68.0,30.01,South,169,0.0,0.0,95,0.03,,,0.26,weatherlink.com 1.10,2013-07-13 02:20:00,
2013-07-12 22:50:00,69.4,68.0,30.02,South,169,0.0,1.0,96,0.06,,,0.32,weatherlink.com 1.10,2013-07-13 02:50:00,
2013-07-12 23:05:00,69.3,68.0,30.02,South,169,0.0,1.0,96,0.09,,,0.35,weatherlink.com 1.10,2013-07-13 03:05:00,
2013-07-12 23:35:00,69.2,68.0,30.02,South,177,0.0,1.0,97,0.10,,,0.36,weatherlink.com 1.10,2013-07-13 03:35:00,